Avondale, Alabama
Current Conditions -  °F | °C
As of 3:53 PM on Tuesday 25 Nov 2014 (Local Time) from KBHM Reporting Station
Broken Clouds Broken Clouds  
Wind Chill: 13°   Ceiling: 11000
Heat Index: 13°   Visibility: 10mi
Dew Point: -3°   Wind: 8mph
Humidity: 33%   Direction: 340°NNW
Pressure: 30.07"   Gusts: NA
Location:  33.5222°N, 86.7699°W
Report Text: KBHM 252153Z 34007KT 10SM BKN110 13/M03 A3007 RMK AO2 SLP181 T01331028
Loading
Personal Weather Stations






























Interactive Weather Map New forecast layout! Learn more

10-Day Weather Forecast

Advertisements
Track Severe Weather on mobile